sensor_id;sensor_type;location;lat;lon;timestamp;P1;durP1;ratioP1;P2;durP2;ratioP2
35494;SDS011;21608;49.300;6.846;2022-10-16T00:02:22;18.17;;;16.08;;
35494;SDS011;21608;49.300;6.846;2022-10-16T00:05:24;18.45;;;15.93;;
35494;SDS011;21608;49.300;6.846;2022-10-16T00:08:25;18.20;;;15.93;;
35494;SDS011;21608;49.300;6.846;2022-10-16T00:11:31;16.52;;;14.77;;
35494;SDS011;21608;49.300;6.846;2022-10-16T00:14:34;16.30;;;14.63;;
35494;SDS011;21608;49.300;6.846;2022-10-16T00:17:36;17.60;;;14.90;;
35494;SDS011;21608;49.300;6.846;2022-10-16T00:20:38;18.73;;;15.68;;
35494;SDS011;21608;49.300;6.846;2022-10-16T00:23:40;18.85;;;15.25;;
35494;SDS011;21608;49.300;6.846;2022-10-16T00:26:43;17.83;;;15.93;;
35494;SDS011;21608;49.300;6.846;2022-10-16T00:29:44;17.63;;;15.15;;
35494;SDS011;21608;49.300;6.846;2022-10-16T00:32:50;17.35;;;15.55;;
35494;SDS011;21608;49.300;6.846;2022-10-16T00:35:52;17.15;;;14.68;;
35494;SDS011;21608;49.300;6.846;2022-10-16T00:38:54;16.38;;;14.68;;
35494;SDS011;21608;49.300;6.846;2022-10-16T00:41:58;16.73;;;14.98;;
35494;SDS011;21608;49.300;6.846;2022-10-16T00:45:00;17.42;;;14.50;;
35494;SDS011;21608;49.300;6.846;2022-10-16T00:48:02;17.13;;;15.32;;
35494;SDS011;21608;49.300;6.846;2022-10-16T00:51:04;17.02;;;15.32;;
35494;SDS011;21608;49.300;6.846;2022-10-16T00:54:09;16.60;;;14.50;;
35494;SDS011;21608;49.300;6.846;2022-10-16T00:57:14;16.60;;;14.80;;
35494;SDS011;21608;49.300;6.846;2022-10-16T01:00:19;16.98;;;15.00;;
35494;SDS011;21608;49.300;6.846;2022-10-16T01:03:29;15.90;;;14.18;;
35494;SDS011;21608;49.300;6.846;2022-10-16T01:09:57;16.58;;;14.77;;
35494;SDS011;21608;49.300;6.846;2022-10-16T01:13:16;17.33;;;15.57;;
35494;SDS011;21608;49.300;6.846;2022-10-16T01:16:29;17.10;;;15.27;;
35494;SDS011;21608;49.300;6.846;2022-10-16T01:26:31;15.82;;;14.15;;
35494;SDS011;21608;49.300;6.846;2022-10-16T01:32:49;15.38;;;13.48;;
35494;SDS011;21608;49.300;6.846;2022-10-16T01:36:02;15.85;;;14.07;;
35494;SDS011;21608;49.300;6.846;2022-10-16T01:39:11;15.57;;;14.07;;
35494;SDS011;21608;49.300;6.846;2022-10-16T01:42:24;15.75;;;13.70;;
35494;SDS011;21608;49.300;6.846;2022-10-16T01:45:31;15.27;;;13.68;;
35494;SDS011;21608;49.300;6.846;2022-10-16T01:48:34;16.13;;;14.27;;
35494;SDS011;21608;49.300;6.846;2022-10-16T01:51:37;15.50;;;13.90;;
35494;SDS011;21608;49.300;6.846;2022-10-16T01:54:39;15.07;;;13.57;;
35494;SDS011;21608;49.300;6.846;2022-10-16T01:57:44;16.60;;;14.73;;
35494;SDS011;21608;49.300;6.846;2022-10-16T02:00:49;16.45;;;14.18;;
35494;SDS011;21608;49.300;6.846;2022-10-16T02:03:53;14.45;;;13.05;;
35494;SDS011;21608;49.300;6.846;2022-10-16T02:06:57;14.80;;;13.32;;
35494;SDS011;21608;49.300;6.846;2022-10-16T02:10:00;14.70;;;13.20;;
35494;SDS011;21608;49.300;6.846;2022-10-16T02:13:12;14.75;;;13.20;;
35494;SDS011;21608;49.300;6.846;2022-10-16T02:16:32;14.75;;;13.30;;
35494;SDS011;21608;49.300;6.846;2022-10-16T02:19:38;16.20;;;13.65;;
35494;SDS011;21608;49.300;6.846;2022-10-16T02:22:42;14.73;;;13.23;;
35494;SDS011;21608;49.300;6.846;2022-10-16T02:25:49;15.85;;;14.00;;
35494;SDS011;21608;49.300;6.846;2022-10-16T02:28:55;15.30;;;13.70;;
35494;SDS011;21608;49.300;6.846;2022-10-16T02:32:03;14.55;;;13.15;;
35494;SDS011;21608;49.300;6.846;2022-10-16T02:35:07;15.00;;;13.45;;
35494;SDS011;21608;49.300;6.846;2022-10-16T02:38:10;15.15;;;13.50;;
35494;SDS011;21608;49.300;6.846;2022-10-16T02:41:14;15.05;;;13.55;;
35494;SDS011;21608;49.300;6.846;2022-10-16T02:44:16;13.57;;;12.25;;
35494;SDS011;21608;49.300;6.846;2022-10-16T02:47:17;14.43;;;12.95;;
35494;SDS011;21608;49.300;6.846;2022-10-16T02:50:19;21.67;;;13.45;;
35494;SDS011;21608;49.300;6.846;2022-10-16T02:53:21;15.65;;;14.00;;
35494;SDS011;21608;49.300;6.846;2022-10-16T02:56:23;13.93;;;12.50;;
35494;SDS011;21608;49.300;6.846;2022-10-16T02:59:25;15.30;;;13.70;;
35494;SDS011;21608;49.300;6.846;2022-10-16T03:02:26;13.02;;;11.82;;
35494;SDS011;21608;49.300;6.846;2022-10-16T03:05:28;14.30;;;12.77;;
35494;SDS011;21608;49.300;6.846;2022-10-16T03:08:30;13.65;;;12.35;;
35494;SDS011;21608;49.300;6.846;2022-10-16T03:11:32;13.20;;;11.95;;
35494;SDS011;21608;49.300;6.846;2022-10-16T03:14:33;13.85;;;12.45;;
35494;SDS011;21608;49.300;6.846;2022-10-16T03:17:35;13.85;;;12.55;;
35494;SDS011;21608;49.300;6.846;2022-10-16T03:20:37;14.27;;;12.77;;
35494;SDS011;21608;49.300;6.846;2022-10-16T03:23:39;12.82;;;11.63;;
35494;SDS011;21608;49.300;6.846;2022-10-16T03:26:41;15.10;;;13.13;;
35494;SDS011;21608;49.300;6.846;2022-10-16T03:29:42;13.73;;;12.30;;
35494;SDS011;21608;49.300;6.846;2022-10-16T03:32:44;12.80;;;11.55;;
35494;SDS011;21608;49.300;6.846;2022-10-16T03:35:50;13.05;;;11.75;;
35494;SDS011;21608;49.300;6.846;2022-10-16T03:38:54;13.68;;;12.25;;
35494;SDS011;21608;49.300;6.846;2022-10-16T03:41:55;13.85;;;12.45;;
35494;SDS011;21608;49.300;6.846;2022-10-16T03:44:57;13.98;;;12.68;;
35494;SDS011;21608;49.300;6.846;2022-10-16T03:47:59;13.80;;;12.43;;
35494;SDS011;21608;49.300;6.846;2022-10-16T03:51:01;13.80;;;12.40;;
35494;SDS011;21608;49.300;6.846;2022-10-16T03:54:02;14.65;;;13.07;;
35494;SDS011;21608;49.300;6.846;2022-10-16T03:57:04;14.43;;;12.93;;
35494;SDS011;21608;49.300;6.846;2022-10-16T04:00:06;13.98;;;12.23;;
35494;SDS011;21608;49.300;6.846;2022-10-16T04:03:17;12.20;;;11.05;;
35494;SDS011;21608;49.300;6.846;2022-10-16T04:06:20;13.93;;;12.52;;
35494;SDS011;21608;49.300;6.846;2022-10-16T04:09:21;12.93;;;11.63;;
35494;SDS011;21608;49.300;6.846;2022-10-16T04:12:23;13.63;;;12.32;;
35494;SDS011;21608;49.300;6.846;2022-10-16T04:15:25;12.85;;;11.55;;
35494;SDS011;21608;49.300;6.846;2022-10-16T04:18:27;14.70;;;12.23;;
35494;SDS011;21608;49.300;6.846;2022-10-16T04:21:30;11.80;;;10.68;;
35494;SDS011;21608;49.300;6.846;2022-10-16T04:24:31;12.55;;;11.35;;
35494;SDS011;21608;49.300;6.846;2022-10-16T04:27:33;13.38;;;12.07;;
35494;SDS011;21608;49.300;6.846;2022-10-16T04:30:37;12.05;;;10.85;;
35494;SDS011;21608;49.300;6.846;2022-10-16T04:33:42;12.80;;;10.63;;
35494;SDS011;21608;49.300;6.846;2022-10-16T04:36:46;12.30;;;11.13;;
35494;SDS011;21608;49.300;6.846;2022-10-16T04:39:49;11.95;;;10.85;;
35494;SDS011;21608;49.300;6.846;2022-10-16T04:42:51;12.40;;;11.20;;
35494;SDS011;21608;49.300;6.846;2022-10-16T04:45:53;12.82;;;11.63;;
35494;SDS011;21608;49.300;6.846;2022-10-16T04:48:55;12.65;;;11.40;;
35494;SDS011;21608;49.300;6.846;2022-10-16T04:51:57;11.10;;;10.05;;
35494;SDS011;21608;49.300;6.846;2022-10-16T04:54:59;12.25;;;11.13;;
35494;SDS011;21608;49.300;6.846;2022-10-16T04:58:03;12.32;;;11.10;;
35494;SDS011;21608;49.300;6.846;2022-10-16T05:01:05;12.65;;;11.45;;
35494;SDS011;21608;49.300;6.846;2022-10-16T05:04:07;12.43;;;11.20;;
35494;SDS011;21608;49.300;6.846;2022-10-16T05:07:09;12.30;;;10.85;;
35494;SDS011;21608;49.300;6.846;2022-10-16T05:10:11;12.48;;;11.27;;
35494;SDS011;21608;49.300;6.846;2022-10-16T05:13:12;11.65;;;10.52;;
35494;SDS011;21608;49.300;6.846;2022-10-16T05:16:14;12.30;;;11.10;;
35494;SDS011;21608;49.300;6.846;2022-10-16T05:19:16;11.30;;;10.27;;
35494;SDS011;21608;49.300;6.846;2022-10-16T05:22:33;10.98;;;9.93;;
35494;SDS011;21608;49.300;6.846;2022-10-16T05:25:35;12.02;;;10.82;;
35494;SDS011;21608;49.300;6.846;2022-10-16T05:28:37;11.95;;;10.90;;
35494;SDS011;21608;49.300;6.846;2022-10-16T05:31:39;15.32;;;11.05;;
35494;SDS011;21608;49.300;6.846;2022-10-16T05:34:41;11.68;;;10.57;;
35494;SDS011;21608;49.300;6.846;2022-10-16T05:37:43;12.13;;;10.93;;
35494;SDS011;21608;49.300;6.846;2022-10-16T05:40:50;12.07;;;10.80;;
35494;SDS011;21608;49.300;6.846;2022-10-16T05:43:53;11.57;;;10.43;;
35494;SDS011;21608;49.300;6.846;2022-10-16T05:46:55;10.98;;;9.98;;
35494;SDS011;21608;49.300;6.846;2022-10-16T05:49:57;13.27;;;11.40;;
35494;SDS011;21608;49.300;6.846;2022-10-16T05:52:59;11.48;;;10.15;;
35494;SDS011;21608;49.300;6.846;2022-10-16T05:56:00;11.45;;;10.30;;
35494;SDS011;21608;49.300;6.846;2022-10-16T05:59:03;10.90;;;9.95;;
35494;SDS011;21608;49.300;6.846;2022-10-16T06:02:05;11.27;;;10.07;;
35494;SDS011;21608;49.300;6.846;2022-10-16T06:05:09;11.68;;;10.48;;
35494;SDS011;21608;49.300;6.846;2022-10-16T06:08:11;10.90;;;9.90;;
35494;SDS011;21608;49.300;6.846;2022-10-16T06:11:14;11.75;;;10.65;;
35494;SDS011;21608;49.300;6.846;2022-10-16T06:14:18;11.85;;;10.40;;
35494;SDS011;21608;49.300;6.846;2022-10-16T06:17:19;10.75;;;9.73;;
35494;SDS011;21608;49.300;6.846;2022-10-16T06:20:21;11.30;;;10.40;;
35494;SDS011;21608;49.300;6.846;2022-10-16T06:23:23;11.45;;;10.32;;
35494;SDS011;21608;49.300;6.846;2022-10-16T06:26:26;11.70;;;10.60;;
35494;SDS011;21608;49.300;6.846;2022-10-16T06:29:29;11.15;;;10.13;;
35494;SDS011;21608;49.300;6.846;2022-10-16T06:32:31;10.35;;;9.45;;
35494;SDS011;21608;49.300;6.846;2022-10-16T06:35:33;10.05;;;9.15;;
35494;SDS011;21608;49.300;6.846;2022-10-16T06:38:35;11.38;;;10.20;;
35494;SDS011;21608;49.300;6.846;2022-10-16T06:41:37;11.10;;;10.02;;
35494;SDS011;21608;49.300;6.846;2022-10-16T06:44:49;11.07;;;10.02;;
35494;SDS011;21608;49.300;6.846;2022-10-16T06:47:50;10.90;;;9.75;;
35494;SDS011;21608;49.300;6.846;2022-10-16T06:50:59;11.90;;;10.18;;
35494;SDS011;21608;49.300;6.846;2022-10-16T06:54:09;10.97;;;9.87;;
35494;SDS011;21608;49.300;6.846;2022-10-16T06:57:11;14.18;;;9.82;;
35494;SDS011;21608;49.300;6.846;2022-10-16T07:00:13;10.98;;;9.40;;
35494;SDS011;21608;49.300;6.846;2022-10-16T07:03:15;10.57;;;9.40;;
35494;SDS011;21608;49.300;6.846;2022-10-16T07:06:18;11.45;;;9.77;;
35494;SDS011;21608;49.300;6.846;2022-10-16T07:09:21;9.57;;;8.50;;
35494;SDS011;21608;49.300;6.846;2022-10-16T07:12:23;12.20;;;10.00;;
35494;SDS011;21608;49.300;6.846;2022-10-16T07:15:25;10.80;;;9.32;;
35494;SDS011;21608;49.300;6.846;2022-10-16T07:18:27;10.93;;;9.88;;
35494;SDS011;21608;49.300;6.846;2022-10-16T07:21:32;10.07;;;9.13;;
35494;SDS011;21608;49.300;6.846;2022-10-16T07:24:38;10.07;;;9.23;;
35494;SDS011;21608;49.300;6.846;2022-10-16T07:27:39;10.00;;;8.88;;
35494;SDS011;21608;49.300;6.846;2022-10-16T07:30:41;8.90;;;8.10;;
35494;SDS011;21608;49.300;6.846;2022-10-16T07:33:43;12.70;;;8.65;;
35494;SDS011;21608;49.300;6.846;2022-10-16T07:36:48;16.77;;;14.88;;
35494;SDS011;21608;49.300;6.846;2022-10-16T07:39:50;24.33;;;14.90;;
35494;SDS011;21608;49.300;6.846;2022-10-16T07:42:52;13.68;;;12.27;;
35494;SDS011;21608;49.300;6.846;2022-10-16T07:45:54;12.13;;;10.82;;
35494;SDS011;21608;49.300;6.846;2022-10-16T07:49:00;12.27;;;10.70;;
35494;SDS011;21608;49.300;6.846;2022-10-16T07:52:02;11.55;;;10.45;;
35494;SDS011;21608;49.300;6.846;2022-10-16T07:55:04;11.32;;;10.13;;
35494;SDS011;21608;49.300;6.846;2022-10-16T07:58:06;12.55;;;11.25;;
35494;SDS011;21608;49.300;6.846;2022-10-16T08:01:09;10.77;;;9.68;;
35494;SDS011;21608;49.300;6.846;2022-10-16T08:04:13;12.43;;;9.63;;
35494;SDS011;21608;49.300;6.846;2022-10-16T08:07:14;11.70;;;10.45;;
35494;SDS011;21608;49.300;6.846;2022-10-16T08:10:17;11.05;;;9.90;;
35494;SDS011;21608;49.300;6.846;2022-10-16T08:13:19;10.88;;;9.77;;
35494;SDS011;21608;49.300;6.846;2022-10-16T08:16:21;12.35;;;9.43;;
35494;SDS011;21608;49.300;6.846;2022-10-16T08:19:23;10.23;;;9.23;;
35494;SDS011;21608;49.300;6.846;2022-10-16T08:22:25;12.70;;;11.43;;
35494;SDS011;21608;49.300;6.846;2022-10-16T08:25:27;12.80;;;10.57;;
35494;SDS011;21608;49.300;6.846;2022-10-16T08:28:29;11.68;;;9.82;;
35494;SDS011;21608;49.300;6.846;2022-10-16T08:31:31;11.10;;;10.00;;
35494;SDS011;21608;49.300;6.846;2022-10-16T08:34:32;10.05;;;9.20;;
35494;SDS011;21608;49.300;6.846;2022-10-16T08:37:34;10.95;;;9.75;;
35494;SDS011;21608;49.300;6.846;2022-10-16T08:40:36;12.07;;;10.88;;
35494;SDS011;21608;49.300;6.846;2022-10-16T08:43:44;10.98;;;9.30;;
35494;SDS011;21608;49.300;6.846;2022-10-16T08:50:24;9.95;;;9.02;;
35494;SDS011;21608;49.300;6.846;2022-10-16T08:53:41;9.35;;;8.55;;
35494;SDS011;21608;49.300;6.846;2022-10-16T08:56:49;9.82;;;8.50;;
35494;SDS011;21608;49.300;6.846;2022-10-16T08:59:51;11.27;;;8.02;;
35494;SDS011;21608;49.300;6.846;2022-10-16T09:03:02;9.55;;;8.45;;
35494;SDS011;21608;49.300;6.846;2022-10-16T09:09:41;9.55;;;8.75;;
35494;SDS011;21608;49.300;6.846;2022-10-16T09:12:49;8.48;;;7.68;;
35494;SDS011;21608;49.300;6.846;2022-10-16T09:16:10;8.20;;;7.53;;
35494;SDS011;21608;49.300;6.846;2022-10-16T09:19:25;8.85;;;8.07;;
35494;SDS011;21608;49.300;6.846;2022-10-16T09:22:34;7.65;;;7.00;;
35494;SDS011;21608;49.300;6.846;2022-10-16T09:25:36;8.20;;;7.50;;
35494;SDS011;21608;49.300;6.846;2022-10-16T09:28:42;7.90;;;7.20;;
35494;SDS011;21608;49.300;6.846;2022-10-16T09:31:44;8.60;;;7.75;;
35494;SDS011;21608;49.300;6.846;2022-10-16T09:34:55;7.90;;;7.30;;
35494;SDS011;21608;49.300;6.846;2022-10-16T09:37:58;8.50;;;7.75;;
35494;SDS011;21608;49.300;6.846;2022-10-16T09:41:00;7.57;;;6.95;;
35494;SDS011;21608;49.300;6.846;2022-10-16T09:44:30;10.35;;;7.35;;
35494;SDS011;21608;49.300;6.846;2022-10-16T09:47:35;8.27;;;7.53;;
35494;SDS011;21608;49.300;6.846;2022-10-16T09:50:54;8.27;;;7.65;;
35494;SDS011;21608;49.300;6.846;2022-10-16T09:57:04;7.40;;;6.90;;
35494;SDS011;21608;49.300;6.846;2022-10-16T10:00:08;6.88;;;6.28;;
35494;SDS011;21608;49.300;6.846;2022-10-16T10:03:10;13.10;;;7.10;;
35494;SDS011;21608;49.300;6.846;2022-10-16T10:09:27;7.68;;;7.07;;
35494;SDS011;21608;49.300;6.846;2022-10-16T10:12:36;9.07;;;7.22;;
35494;SDS011;21608;49.300;6.846;2022-10-16T10:15:41;8.23;;;7.43;;
35494;SDS011;21608;49.300;6.846;2022-10-16T10:18:43;7.38;;;6.68;;
35494;SDS011;21608;49.300;6.846;2022-10-16T10:21:45;7.72;;;7.03;;
35494;SDS011;21608;49.300;6.846;2022-10-16T10:24:54;8.95;;;6.53;;
35494;SDS011;21608;49.300;6.846;2022-10-16T10:28:23;9.30;;;6.70;;
35494;SDS011;21608;49.300;6.846;2022-10-16T10:31:36;7.78;;;7.13;;
35494;SDS011;21608;49.300;6.846;2022-10-16T10:35:02;7.47;;;6.85;;
35494;SDS011;21608;49.300;6.846;2022-10-16T10:51:04;7.07;;;6.47;;
35494;SDS011;21608;49.300;6.846;2022-10-16T10:54:17;7.50;;;6.70;;
35494;SDS011;21608;49.300;6.846;2022-10-16T10:57:36;6.90;;;6.30;;
35494;SDS011;21608;49.300;6.846;2022-10-16T11:01:09;7.25;;;6.57;;
35494;SDS011;21608;49.300;6.846;2022-10-16T11:07:40;7.32;;;6.72;;
35494;SDS011;21608;49.300;6.846;2022-10-16T11:10:53;7.15;;;6.55;;
35494;SDS011;21608;49.300;6.846;2022-10-16T11:17:10;6.57;;;6.05;;
35494;SDS011;21608;49.300;6.846;2022-10-16T11:20:20;6.97;;;6.40;;
35494;SDS011;21608;49.300;6.846;2022-10-16T11:23:48;6.13;;;5.53;;
35494;SDS011;21608;49.300;6.846;2022-10-16T11:26:53;7.15;;;6.55;;
35494;SDS011;21608;49.300;6.846;2022-10-16T11:29:58;6.25;;;5.78;;
35494;SDS011;21608;49.300;6.846;2022-10-16T11:39:25;6.85;;;6.28;;
35494;SDS011;21608;49.300;6.846;2022-10-16T11:42:31;7.22;;;6.55;;
35494;SDS011;21608;49.300;6.846;2022-10-16T11:45:39;6.35;;;5.85;;
35494;SDS011;21608;49.300;6.846;2022-10-16T11:49:18;6.07;;;5.53;;
35494;SDS011;21608;49.300;6.846;2022-10-16T11:55:44;6.38;;;5.80;;
35494;SDS011;21608;49.300;6.846;2022-10-16T11:58:58;6.85;;;6.15;;
35494;SDS011;21608;49.300;6.846;2022-10-16T12:08:41;6.85;;;6.22;;
35494;SDS011;21608;49.300;6.846;2022-10-16T12:11:45;10.63;;;6.00;;
35494;SDS011;21608;49.300;6.846;2022-10-16T12:14:46;8.15;;;5.78;;
35494;SDS011;21608;49.300;6.846;2022-10-16T12:18:20;7.93;;;6.72;;
35494;SDS011;21608;49.300;6.846;2022-10-16T12:21:23;6.68;;;6.13;;
35494;SDS011;21608;49.300;6.846;2022-10-16T12:24:35;7.03;;;6.38;;
35494;SDS011;21608;49.300;6.846;2022-10-16T12:30:41;7.63;;;6.18;;
35494;SDS011;21608;49.300;6.846;2022-10-16T12:33:58;9.32;;;6.57;;
35494;SDS011;21608;49.300;6.846;2022-10-16T12:37:10;6.65;;;6.05;;
35494;SDS011;21608;49.300;6.846;2022-10-16T12:43:40;6.88;;;6.28;;
35494;SDS011;21608;49.300;6.846;2022-10-16T12:46:43;6.15;;;5.53;;
35494;SDS011;21608;49.300;6.846;2022-10-16T12:49:52;6.40;;;5.80;;
35494;SDS011;21608;49.300;6.846;2022-10-16T12:52:55;9.82;;;5.88;;
35494;SDS011;21608;49.300;6.846;2022-10-16T12:59:28;6.47;;;5.53;;
35494;SDS011;21608;49.300;6.846;2022-10-16T13:09:40;5.82;;;5.30;;
35494;SDS011;21608;49.300;6.846;2022-10-16T13:19:11;6.60;;;5.45;;
35494;SDS011;21608;49.300;6.846;2022-10-16T13:29:16;6.63;;;5.10;;
35494;SDS011;21608;49.300;6.846;2022-10-16T13:32:18;7.32;;;5.80;;
35494;SDS011;21608;49.300;6.846;2022-10-16T13:35:26;6.10;;;5.50;;
35494;SDS011;21608;49.300;6.846;2022-10-16T13:38:30;5.50;;;5.00;;
35494;SDS011;21608;49.300;6.846;2022-10-16T13:41:34;5.28;;;4.85;;
35494;SDS011;21608;49.300;6.846;2022-10-16T13:44:55;5.28;;;4.78;;
35494;SDS011;21608;49.300;6.846;2022-10-16T13:48:01;5.20;;;4.80;;
35494;SDS011;21608;49.300;6.846;2022-10-16T13:54:17;5.82;;;4.68;;
35494;SDS011;21608;49.300;6.846;2022-10-16T13:57:21;5.03;;;4.63;;
35494;SDS011;21608;49.300;6.846;2022-10-16T14:00:28;5.45;;;5.05;;
35494;SDS011;21608;49.300;6.846;2022-10-16T14:03:32;5.55;;;4.75;;
35494;SDS011;21608;49.300;6.846;2022-10-16T14:06:36;4.82;;;4.43;;
35494;SDS011;21608;49.300;6.846;2022-10-16T14:09:47;5.28;;;4.72;;
35494;SDS011;21608;49.300;6.846;2022-10-16T14:12:54;4.88;;;4.47;;
35494;SDS011;21608;49.300;6.846;2022-10-16T14:15:59;4.65;;;4.15;;
35494;SDS011;21608;49.300;6.846;2022-10-16T14:19:06;5.10;;;4.53;;
35494;SDS011;21608;49.300;6.846;2022-10-16T14:22:38;4.43;;;4.03;;
35494;SDS011;21608;49.300;6.846;2022-10-16T14:25:41;4.45;;;4.05;;
35494;SDS011;21608;49.300;6.846;2022-10-16T14:28:43;4.25;;;3.92;;
35494;SDS011;21608;49.300;6.846;2022-10-16T14:32:03;4.20;;;3.90;;
35494;SDS011;21608;49.300;6.846;2022-10-16T14:35:21;4.25;;;3.78;;
35494;SDS011;21608;49.300;6.846;2022-10-16T14:42:00;4.47;;;4.13;;
35494;SDS011;21608;49.300;6.846;2022-10-16T14:45:07;4.00;;;3.60;;
35494;SDS011;21608;49.300;6.846;2022-10-16T14:48:16;4.70;;;3.42;;
35494;SDS011;21608;49.300;6.846;2022-10-16T14:51:20;4.07;;;3.78;;
35494;SDS011;21608;49.300;6.846;2022-10-16T14:54:23;5.05;;;4.22;;
35494;SDS011;21608;49.300;6.846;2022-10-16T14:57:26;3.97;;;3.67;;
35494;SDS011;21608;49.300;6.846;2022-10-16T15:00:31;6.25;;;3.55;;
35494;SDS011;21608;49.300;6.846;2022-10-16T15:03:32;8.90;;;4.03;;
35494;SDS011;21608;49.300;6.846;2022-10-16T15:06:34;6.40;;;4.07;;
35494;SDS011;21608;49.300;6.846;2022-10-16T15:09:36;4.07;;;3.67;;
35494;SDS011;21608;49.300;6.846;2022-10-16T15:12:38;4.57;;;3.90;;
35494;SDS011;21608;49.300;6.846;2022-10-16T15:15:41;6.43;;;3.65;;
35494;SDS011;21608;49.300;6.846;2022-10-16T15:18:44;3.53;;;3.22;;
35494;SDS011;21608;49.300;6.846;2022-10-16T15:21:46;5.07;;;3.53;;
35494;SDS011;21608;49.300;6.846;2022-10-16T15:24:48;3.65;;;3.30;;
35494;SDS011;21608;49.300;6.846;2022-10-16T15:27:50;5.63;;;3.55;;
35494;SDS011;21608;49.300;6.846;2022-10-16T15:30:52;3.20;;;2.95;;
35494;SDS011;21608;49.300;6.846;2022-10-16T15:33:55;3.60;;;3.30;;
35494;SDS011;21608;49.300;6.846;2022-10-16T15:37:03;5.13;;;3.53;;
35494;SDS011;21608;49.300;6.846;2022-10-16T15:40:05;3.38;;;3.08;;
35494;SDS011;21608;49.300;6.846;2022-10-16T15:43:07;5.70;;;3.75;;
35494;SDS011;21608;49.300;6.846;2022-10-16T15:46:11;3.35;;;3.05;;
35494;SDS011;21608;49.300;6.846;2022-10-16T15:49:15;4.55;;;3.55;;
35494;SDS011;21608;49.300;6.846;2022-10-16T15:52:17;5.32;;;3.63;;
35494;SDS011;21608;49.300;6.846;2022-10-16T15:55:19;4.63;;;3.10;;
35494;SDS011;21608;49.300;6.846;2022-10-16T15:58:20;3.60;;;3.30;;
35494;SDS011;21608;49.300;6.846;2022-10-16T16:01:22;4.60;;;3.47;;
35494;SDS011;21608;49.300;6.846;2022-10-16T16:04:24;4.00;;;3.00;;
35494;SDS011;21608;49.300;6.846;2022-10-16T16:07:43;6.63;;;3.50;;
35494;SDS011;21608;49.300;6.846;2022-10-16T16:10:45;3.58;;;3.28;;
35494;SDS011;21608;49.300;6.846;2022-10-16T16:13:57;3.72;;;3.10;;
35494;SDS011;21608;49.300;6.846;2022-10-16T16:16:59;4.70;;;2.90;;
35494;SDS011;21608;49.300;6.846;2022-10-16T16:20:01;3.28;;;3.08;;
35494;SDS011;21608;49.300;6.846;2022-10-16T16:23:03;4.47;;;3.40;;
35494;SDS011;21608;49.300;6.846;2022-10-16T16:26:06;4.93;;;3.45;;
35494;SDS011;21608;49.300;6.846;2022-10-16T16:29:12;3.73;;;3.13;;
35494;SDS011;21608;49.300;6.846;2022-10-16T16:32:16;4.47;;;3.15;;
35494;SDS011;21608;49.300;6.846;2022-10-16T16:35:18;3.88;;;3.58;;
35494;SDS011;21608;49.300;6.846;2022-10-16T16:38:19;3.25;;;3.00;;
35494;SDS011;21608;49.300;6.846;2022-10-16T16:41:22;4.43;;;3.00;;
35494;SDS011;21608;49.300;6.846;2022-10-16T16:44:26;3.97;;;3.13;;
35494;SDS011;21608;49.300;6.846;2022-10-16T16:47:28;3.33;;;3.03;;
35494;SDS011;21608;49.300;6.846;2022-10-16T16:50:34;3.70;;;3.40;;
35494;SDS011;21608;49.300;6.846;2022-10-16T16:53:37;4.03;;;3.25;;
35494;SDS011;21608;49.300;6.846;2022-10-16T16:56:39;3.47;;;3.17;;
35494;SDS011;21608;49.300;6.846;2022-10-16T16:59:43;3.00;;;2.70;;
35494;SDS011;21608;49.300;6.846;2022-10-16T17:02:48;3.80;;;3.38;;
35494;SDS011;21608;49.300;6.846;2022-10-16T17:05:57;3.38;;;3.08;;
35494;SDS011;21608;49.300;6.846;2022-10-16T17:09:00;2.78;;;2.50;;
35494;SDS011;21608;49.300;6.846;2022-10-16T17:12:03;3.42;;;2.92;;
35494;SDS011;21608;49.300;6.846;2022-10-16T17:15:06;2.75;;;2.55;;
35494;SDS011;21608;49.300;6.846;2022-10-16T17:18:08;3.05;;;2.58;;
35494;SDS011;21608;49.300;6.846;2022-10-16T17:21:10;3.65;;;3.38;;
35494;SDS011;21608;49.300;6.846;2022-10-16T17:24:12;2.92;;;2.72;;
35494;SDS011;21608;49.300;6.846;2022-10-16T17:27:13;2.80;;;2.60;;
35494;SDS011;21608;49.300;6.846;2022-10-16T17:30:15;3.08;;;2.70;;
35494;SDS011;21608;49.300;6.846;2022-10-16T17:33:17;3.22;;;2.92;;
35494;SDS011;21608;49.300;6.846;2022-10-16T17:36:19;2.90;;;2.65;;
35494;SDS011;21608;49.300;6.846;2022-10-16T17:39:22;3.85;;;3.38;;
35494;SDS011;21608;49.300;6.846;2022-10-16T17:42:24;9.60;;;3.25;;
35494;SDS011;21608;49.300;6.846;2022-10-16T17:45:26;3.80;;;3.08;;
35494;SDS011;21608;49.300;6.846;2022-10-16T17:48:28;4.68;;;2.50;;
35494;SDS011;21608;49.300;6.846;2022-10-16T17:51:30;6.60;;;3.00;;
35494;SDS011;21608;49.300;6.846;2022-10-16T17:54:32;3.88;;;3.40;;
35494;SDS011;21608;49.300;6.846;2022-10-16T17:57:34;2.88;;;2.67;;
35494;SDS011;21608;49.300;6.846;2022-10-16T18:00:36;4.15;;;3.42;;
35494;SDS011;21608;49.300;6.846;2022-10-16T18:03:38;2.92;;;2.72;;
35494;SDS011;21608;49.300;6.846;2022-10-16T18:06:40;3.33;;;3.00;;
35494;SDS011;21608;49.300;6.846;2022-10-16T18:09:44;5.88;;;3.00;;
35494;SDS011;21608;49.300;6.846;2022-10-16T18:13:05;3.40;;;3.10;;
35494;SDS011;21608;49.300;6.846;2022-10-16T18:16:09;3.25;;;2.67;;
35494;SDS011;21608;49.300;6.846;2022-10-16T18:19:12;3.25;;;2.95;;
35494;SDS011;21608;49.300;6.846;2022-10-16T18:22:14;3.10;;;2.90;;
35494;SDS011;21608;49.300;6.846;2022-10-16T18:25:16;3.28;;;2.70;;
35494;SDS011;21608;49.300;6.846;2022-10-16T18:28:17;3.25;;;2.95;;
35494;SDS011;21608;49.300;6.846;2022-10-16T18:31:20;3.17;;;2.88;;
35494;SDS011;21608;49.300;6.846;2022-10-16T18:34:23;4.10;;;3.45;;
35494;SDS011;21608;49.300;6.846;2022-10-16T18:37:27;2.88;;;2.67;;
35494;SDS011;21608;49.300;6.846;2022-10-16T18:40:29;3.25;;;2.58;;
35494;SDS011;21608;49.300;6.846;2022-10-16T18:43:31;4.70;;;2.78;;
35494;SDS011;21608;49.300;6.846;2022-10-16T18:46:34;3.42;;;2.63;;
35494;SDS011;21608;49.300;6.846;2022-10-16T18:49:36;3.25;;;2.50;;
35494;SDS011;21608;49.300;6.846;2022-10-16T18:52:37;6.57;;;3.03;;
35494;SDS011;21608;49.300;6.846;2022-10-16T18:55:40;3.13;;;2.83;;
35494;SDS011;21608;49.300;6.846;2022-10-16T18:58:42;4.97;;;3.38;;
35494;SDS011;21608;49.300;6.846;2022-10-16T19:01:45;4.72;;;2.83;;
35494;SDS011;21608;49.300;6.846;2022-10-16T19:04:49;3.17;;;2.88;;
35494;SDS011;21608;49.300;6.846;2022-10-16T19:07:50;3.00;;;2.80;;
35494;SDS011;21608;49.300;6.846;2022-10-16T19:10:52;7.03;;;2.95;;
35494;SDS011;21608;49.300;6.846;2022-10-16T19:13:54;3.80;;;2.65;;
35494;SDS011;21608;49.300;6.846;2022-10-16T19:16:57;2.85;;;2.63;;
35494;SDS011;21608;49.300;6.846;2022-10-16T19:19:59;2.83;;;2.65;;
35494;SDS011;21608;49.300;6.846;2022-10-16T19:23:01;2.70;;;2.50;;
35494;SDS011;21608;49.300;6.846;2022-10-16T19:26:05;2.80;;;2.60;;
35494;SDS011;21608;49.300;6.846;2022-10-16T19:29:08;2.78;;;2.58;;
35494;SDS011;21608;49.300;6.846;2022-10-16T19:32:11;2.78;;;2.58;;
35494;SDS011;21608;49.300;6.846;2022-10-16T19:35:13;3.78;;;2.90;;
35494;SDS011;21608;49.300;6.846;2022-10-16T19:38:14;9.98;;;3.35;;
35494;SDS011;21608;49.300;6.846;2022-10-16T19:41:16;11.38;;;4.10;;
35494;SDS011;21608;49.300;6.846;2022-10-16T19:44:19;10.27;;;3.85;;
35494;SDS011;21608;49.300;6.846;2022-10-16T19:47:21;7.30;;;4.10;;
35494;SDS011;21608;49.300;6.846;2022-10-16T19:50:23;8.75;;;4.60;;
35494;SDS011;21608;49.300;6.846;2022-10-16T19:53:26;10.07;;;4.28;;
35494;SDS011;21608;49.300;6.846;2022-10-16T19:56:31;6.85;;;4.38;;
35494;SDS011;21608;49.300;6.846;2022-10-16T19:59:34;5.53;;;4.60;;